.
WxDataArchive / Data Records for 2009-11-10
2009-11-09 November 2009 2009-11-11

Data Records for Tuesday, 10 November 2009

Time	Temp	Chill	HIndex	Humid	Dewpt	 Wind 	HiWind	WindDir	Rain 	Barom 
-----	----	-----	------	-----	-----	------	------	-------	-----	----- 
00:00	56.0	56.0	56.0	87	52.2	0	0	---	0.00	30.316 
00:05	55.9	55.9	55.9	87	52.1	0	0	---	0.00	30.316 
00:10	55.6	55.6	55.6	88	52.1	0	0	---	0.00	30.316 
00:15	55.4	55.4	55.4	88	51.9	0	0	---	0.00	30.314 
00:20	55.3	55.3	55.3	88	51.8	0	0	---	0.00	30.314 
00:25	55.0	55.0	55.0	88	51.5	0	0	---	0.00	30.314 
00:30	54.8	54.8	54.8	88	51.3	0	0	---	0.00	30.308 
00:35	54.7	54.7	54.7	89	51.5	0	0	---	0.00	30.308 
00:40	54.5	54.5	54.5	89	51.3	0	0	---	0.00	30.308 
00:45	54.4	54.4	54.4	89	51.2	0	0	---	0.00	30.303 
00:50	54.2	54.2	54.2	89	51.0	0	0	---	0.00	30.303 
00:55	54.1	54.1	54.1	90	51.2	0	0	---	0.00	30.303 
01:00	53.9	53.9	53.9	90	51.0	0	0	---	0.00	30.298 
01:05	53.9	53.9	53.9	90	51.0	0	0	---	0.00	30.298 
01:10	53.8	53.8	53.8	90	50.9	0	0	---	0.00	30.298 
01:15	53.8	53.8	53.8	91	51.2	0	0	---	0.00	30.295 
01:20	53.8	53.8	53.8	91	51.2	0	0	---	0.00	30.295 
01:25	53.8	53.8	53.8	91	51.2	0	0	---	0.00	30.295 
01:30	53.8	53.8	53.8	91	51.2	0	0	---	0.00	30.301 
01:35	53.8	53.8	53.8	92	51.5	0	0	---	0.00	30.301 
01:40	53.8	53.8	53.8	91	51.2	0	0	---	0.00	30.301 
01:45	53.6	53.6	53.6	91	51.0	0	0	---	0.00	30.302 
01:50	53.6	53.6	53.6	92	51.3	0	0	---	0.00	30.302 
01:55	53.6	53.6	53.6	92	51.3	0	0	---	0.00	30.302 
02:00	53.9	53.9	53.9	92	51.6	0	0	---	0.00	30.302 
02:05	53.9	53.9	53.9	91	51.3	0	0	---	0.00	30.302 
02:10	54.1	54.1	54.1	91	51.5	0	1	225	0.00	30.302 
02:15	54.1	54.1	54.1	90	51.2	0	0	---	0.00	30.303 
02:20	54.1	54.1	54.1	90	51.2	0	0	---	0.00	30.303 
02:25	54.2	54.2	54.2	90	51.3	0	1	225	0.00	30.303 
02:30	54.4	54.4	54.4	89	51.2	0	0	---	0.00	30.305 
02:35	54.4	54.4	54.4	89	51.2	0	1	225	0.00	30.305 
02:40	54.5	54.5	54.5	88	51.0	0	0	---	0.00	30.305 
02:45	54.5	54.5	54.5	88	51.0	0	1	225	0.00	30.314 
02:50	54.7	54.7	54.7	87	50.9	0	1	225	0.00	30.314 
02:55	54.8	54.8	54.8	87	51.0	0	0	---	0.00	30.314 
03:00	54.8	54.8	54.8	87	51.0	0	1	225	0.00	30.306 
03:05	54.8	54.8	54.8	86	50.7	0	4	135	0.00	30.306 
03:10	54.8	54.8	54.8	86	50.7	0	1	135	0.00	30.306 
03:15	55.0	55.0	55.0	86	50.9	0	3	135	0.00	30.308 
03:20	55.0	55.0	55.0	85	50.6	0	2	135	0.00	30.308 
03:25	55.0	55.0	55.0	85	50.6	0	2	135	0.00	30.308 
03:30	55.0	55.0	55.0	84	50.3	1	3	135	0.00	30.304 
03:35	55.1	55.1	55.1	84	50.4	1	4	90	0.00	30.304 
03:40	55.1	55.1	55.1	83	50.0	1	5	45	0.00	30.304 
03:45	55.3	55.3	55.3	83	50.2	1	4	68	0.00	30.307 
03:50	55.3	55.3	55.3	83	50.2	1	3	22	0.00	30.307 
03:55	55.3	55.3	55.3	83	50.2	1	4	45	0.00	30.307 
04:00	55.4	55.4	55.4	83	50.3	1	4	90	0.00	30.319 
04:05	55.4	55.4	55.4	83	50.3	2	6	90	0.00	30.319 
04:10	55.4	55.4	55.4	82	50.0	3	6	112	0.00	30.319 
04:15	55.4	55.4	55.4	81	49.7	3	10	112	0.00	30.317 
04:20	55.3	55.3	55.3	81	49.6	3	11	90	0.00	30.317 
04:25	55.1	55.1	55.1	81	49.4	3	9	112	0.00	30.317 
04:30	55.1	55.1	55.1	82	49.7	2	10	90	0.00	30.322 
04:35	55.0	55.0	55.0	82	49.6	1	5	45	0.00	30.322 
04:40	54.8	54.8	54.8	83	49.7	0	3	112	0.00	30.322 
04:45	54.8	54.8	54.8	83	49.7	1	5	112	0.00	30.334 
04:50	54.7	54.7	54.7	83	49.6	1	3	90	0.00	30.334 
04:55	54.5	54.5	54.5	83	49.4	1	6	90	0.00	30.334 
05:00	54.4	54.4	54.4	82	49.0	2	6	90	0.00	30.335 
05:05	54.2	54.2	54.2	80	48.2	1	4	90	0.00	30.335 
05:10	54.1	54.1	54.1	77	47.0	1	6	90	0.00	30.335 
05:15	54.1	54.1	54.1	77	47.0	0	4	112	0.00	30.353 
05:20	53.9	53.9	53.9	75	46.2	1	3	45	0.00	30.353 
05:25	53.8	53.8	53.8	73	45.3	1	4	45	0.00	30.353 
05:30	53.5	53.5	53.5	68	43.2	2	6	112	0.00	30.356 
05:35	53.5	53.5	53.5	66	42.4	1	5	112	0.00	30.356 
05:40	53.3	53.3	53.3	65	41.8	1	4	112	0.00	30.356 
05:45	53.2	53.2	53.2	65	41.7	1	5	112	0.00	30.355 
05:50	53.2	53.2	53.2	65	41.7	1	3	45	0.00	30.355 
05:55	53.1	53.1	53.1	65	41.6	2	7	112	0.00	30.355 
06:00	52.9	52.9	52.9	65	41.5	2	6	90	0.00	30.356 
06:05	52.9	52.9	52.9	65	41.5	2	7	112	0.00	30.356 
06:10	52.8	52.8	52.8	65	41.4	4	10	112	0.00	30.356 
06:15	52.8	52.8	52.8	65	41.4	4	11	90	0.00	30.352 
06:20	52.8	52.8	52.8	66	41.8	3	8	112	0.00	30.352 
06:25	52.6	52.6	52.6	68	42.3	3	6	90	0.00	30.352 
06:30	52.3	52.3	52.3	69	42.4	3	9	112	0.00	30.357 
06:35	52.3	52.3	52.3	69	42.4	2	7	90	0.00	30.357 
06:40	52.3	52.3	52.3	69	42.4	2	6	112	0.00	30.357 
06:45	52.3	52.3	52.3	68	42.1	4	12	90	0.00	30.360 
06:50	52.3	52.3	52.3	68	42.1	3	8	90	0.00	30.360 
06:55	52.3	52.3	52.3	68	42.1	3	6	90	0.00	30.360 
07:00	52.3	52.3	52.3	68	42.1	2	7	112	0.00	30.356 
07:05	52.2	52.2	52.2	69	42.3	0	4	158	0.00	30.356 
07:10	52.2	52.2	52.2	69	42.3	1	3	45	0.00	30.356 
07:15	52.2	52.2	52.2	68	42.0	1	3	45	0.00	30.368 
07:20	52.2	52.2	52.2	68	42.0	1	4	112	0.00	30.368 
07:25	52.2	52.2	52.2	68	42.0	1	5	90	0.00	30.368 
07:30	52.2	52.2	52.2	68	42.0	1	4	112	0.00	30.385 
07:35	52.2	52.2	52.2	68	42.0	1	5	158	0.00	30.385 
07:40	52.2	52.2	52.2	67	41.6	1	5	112	0.00	30.385 
07:45	52.0	52.0	52.0	67	41.4	1	4	45	0.00	30.392 
07:50	52.0	52.0	52.0	67	41.4	1	5	112	0.00	30.392 
07:55	52.0	52.0	52.0	67	41.4	1	4	135	0.00	30.392 
08:00	52.0	52.0	52.0	67	41.4	1	4	90	0.00	30.396 
08:05	51.9	51.9	51.9	67	41.3	2	4	112	0.00	30.396 
08:10	51.9	51.9	51.9	66	40.9	3	7	90	0.00	30.396 
08:15	51.9	51.9	51.9	67	41.3	2	5	90	0.00	30.393 
08:20	51.7	51.7	51.7	68	41.5	1	4	68	0.00	30.393 
08:25	51.4	51.4	51.4	69	41.6	2	7	90	0.00	30.393 
08:30	51.3	51.3	51.3	69	41.5	4	11	45	0.00	30.393 
08:35	51.0	51.0	51.0	70	41.6	1	6	68	0.00	30.393 
08:40	50.8	50.8	50.8	70	41.4	1	6	45	0.00	30.393 
08:45	50.8	50.8	50.8	71	41.7	2	6	135	0.00	30.393 
08:50	50.7	50.7	50.7	70	41.3	2	6	68	0.00	30.393 
08:55	50.7	50.7	50.7	71	41.6	1	6	45	0.00	30.393 
09:00	50.7	50.7	50.7	71	41.6	2	6	135	0.00	30.395 
09:05	50.7	50.7	50.7	70	41.3	2	7	90	0.00	30.395 
09:10	50.7	50.7	50.7	70	41.3	2	11	112	0.00	30.395 
09:15	50.5	50.5	50.5	70	41.1	2	7	45	0.00	30.397 
09:20	50.5	50.5	50.5	69	40.7	3	10	68	0.00	30.397 
09:25	50.5	50.5	50.5	69	40.7	2	9	45	0.00	30.397 
09:30	50.5	50.5	50.5	70	41.1	2	6	68	0.00	30.406 
09:35	50.4	50.4	50.4	69	40.6	2	6	68	0.00	30.406 
09:40	50.4	50.4	50.4	70	41.0	2	4	45	0.00	30.406 
09:45	50.2	50.2	50.2	70	40.8	3	11	112	0.00	30.411 
09:50	50.2	50.2	50.2	71	41.2	2	6	112	0.00	30.411 
09:55	50.2	50.2	50.2	71	41.2	2	9	112	0.00	30.411 
10:00	50.1	50.1	50.1	72	41.4	2	7	112	0.00	30.411 
10:05	50.1	50.1	50.1	73	41.8	1	6	22	0.00	30.411 
10:10	50.1	50.1	50.1	73	41.8	2	5	90	0.00	30.411 
10:15	49.9	49.9	49.9	73	41.6	3	7	22	0.00	30.405 
10:20	49.9	49.9	49.9	73	41.6	3	10	112	0.00	30.405 
10:25	49.9	49.9	49.9	73	41.6	2	10	112	0.00	30.405 
10:30	49.8	49.8	49.8	73	41.5	2	9	112	0.00	30.407 
10:35	49.6	49.6	49.6	75	42.0	3	6	112	0.00	30.407 
10:40	49.5	49.5	49.5	75	41.9	3	11	90	0.00	30.407 
10:45	49.4	49.4	49.4	76	42.2	3	9	112	0.00	30.410 
10:50	49.4	49.4	49.4	76	42.2	3	7	90	0.00	30.410 
10:55	49.4	49.4	49.4	76	42.2	3	11	112	0.00	30.410 
11:00	49.2	47.9	49.2	76	42.0	4	12	112	0.00	30.417 
11:05	49.1	49.1	49.1	77	42.2	3	10	90	0.00	30.417 
11:10	49.2	49.2	49.2	77	42.3	3	11	112	0.00	30.417 
11:15	49.2	49.2	49.2	77	42.3	2	8	90	0.00	30.425 
11:20	49.4	49.4	49.4	77	42.5	2	7	90	0.00	30.425 
11:25	49.4	49.4	49.4	77	42.5	3	7	90	0.00	30.425 
11:30	49.5	49.5	49.5	76	42.3	2	7	112	0.00	30.424 
11:35	49.5	48.3	49.5	76	42.3	4	9	112	0.00	30.424 
11:40	49.5	49.5	49.5	75	41.9	3	11	90	0.00	30.424 
11:45	49.6	48.4	49.6	75	42.0	4	10	112	0.00	30.426 
11:50	49.6	49.6	49.6	75	42.0	2	5	112	0.00	30.426 
11:55	49.8	49.8	49.8	75	42.2	1	5	112	0.00	30.426 
12:00	49.8	49.8	49.8	74	41.9	3	11	135	0.00	30.416 
12:05	49.9	48.8	49.9	74	41.9	4	12	112	0.00	30.416 
12:10	49.9	49.9	49.9	74	41.9	2	13	90	0.00	30.416 
12:15	50.1	50.1	50.1	74	42.1	2	9	112	0.00	30.419 
12:20	50.1	50.1	50.1	73	41.8	2	5	158	0.00	30.419 
12:25	50.2	50.2	50.2	74	42.2	1	2	135	0.00	30.419 
12:30	50.4	50.4	50.4	73	42.1	1	6	90	0.00	30.425 
12:35	50.5	50.5	50.5	73	42.2	1	3	45	0.00	30.425 
12:40	50.5	50.5	50.5	72	41.8	1	6	90	0.00	30.425 
12:45	50.5	50.5	50.5	71	41.5	1	4	112	0.00	30.426 
12:50	50.7	50.7	50.7	71	41.6	0	4	112	0.00	30.426 
12:55	50.8	50.8	50.8	70	41.4	1	3	68	0.00	30.426 
13:00	50.8	50.8	50.8	70	41.4	1	4	90	0.00	30.422 
13:05	50.8	50.8	50.8	69	41.0	1	4	45	0.00	30.422 
13:10	51.0	51.0	51.0	69	41.2	2	6	112	0.00	30.422 
13:15	50.8	50.8	50.8	69	41.0	1	4	68	0.00	30.417 
13:20	50.8	50.8	50.8	70	41.4	2	5	112	0.00	30.417 
13:25	50.8	50.8	50.8	70	41.4	2	5	135	0.00	30.417 
13:30	50.7	50.7	50.7	70	41.3	1	5	112	0.00	30.413 
13:35	50.7	50.7	50.7	71	41.6	1	5	68	0.00	30.413 
13:40	50.7	50.7	50.7	72	42.0	1	3	112	0.00	30.413 
13:45	50.7	50.7	50.7	72	42.0	1	6	112	0.00	30.410 
13:50	50.5	50.5	50.5	72	41.8	1	7	0	0.00	30.410 
13:55	50.5	50.5	50.5	72	41.8	2	7	90	0.00	30.410 
14:00	50.5	50.5	50.5	71	41.5	2	7	90	0.00	30.408 
14:05	50.5	50.5	50.5	71	41.5	2	7	112	0.00	30.408 
14:10	50.5	50.5	50.5	71	41.5	1	3	158	0.00	30.408 
14:15	50.7	50.7	50.7	71	41.6	1	7	112	0.00	30.407 
14:20	50.7	50.7	50.7	70	41.3	2	7	90	0.00	30.407 
14:25	50.7	50.7	50.7	70	41.3	1	9	90	0.00	30.407 
14:30	50.5	50.5	50.5	69	40.7	3	7	112	0.00	30.403 
14:35	50.5	50.5	50.5	69	40.7	2	6	112	0.00	30.403 
14:40	50.5	50.5	50.5	70	41.1	1	4	112	0.00	30.403 
14:45	50.7	50.7	50.7	69	40.9	2	6	90	0.00	30.408 
14:50	50.7	50.7	50.7	67	40.1	2	9	90	0.00	30.408 
14:55	50.8	50.8	50.8	68	40.6	1	5	68	0.00	30.408 
15:00	50.8	50.8	50.8	67	40.2	2	9	112	0.00	30.403 
15:05	51.0	51.0	51.0	66	40.0	2	6	112	0.00	30.403 
15:10	51.1	51.1	51.1	67	40.5	1	9	90	0.00	30.403 
15:15	51.1	51.1	51.1	66	40.1	1	5	68	0.00	30.399 
15:20	51.1	51.1	51.1	65	39.7	2	5	90	0.00	30.399 
15:25	51.1	51.1	51.1	65	39.7	1	6	158	0.00	30.399 
15:30	51.3	51.3	51.3	64	39.5	2	6	112	0.00	30.406 
15:35	51.4	51.4	51.4	64	39.6	1	6	158	0.00	30.406 
15:40	51.6	51.6	51.6	63	39.4	1	6	45	0.00	30.406 
15:45	51.6	51.6	51.6	62	39.0	1	4	112	0.00	30.404 
15:50	51.7	51.7	51.7	61	38.7	1	3	68	0.00	30.404 
15:55	51.9	51.9	51.9	57	37.1	2	5	112	0.00	30.404 
16:00	52.0	52.0	52.0	56	36.8	1	5	68	0.00	30.397 
16:05	52.2	52.2	52.2	56	37.0	2	6	90	0.00	30.397 
16:10	52.0	52.0	52.0	56	36.8	2	4	90	0.00	30.397 
16:15	51.9	51.9	51.9	56	36.7	1	4	112	0.00	30.398 
16:20	51.7	51.7	51.7	56	36.5	1	3	112	0.00	30.398 
16:25	51.6	51.6	51.6	55	36.0	1	7	68	0.00	30.398 
16:30	51.4	51.4	51.4	56	36.2	1	4	45	0.00	30.412 
16:35	51.3	51.3	51.3	55	35.7	1	3	112	0.00	30.412 
16:40	51.3	51.3	51.3	58	37.0	0	3	45	0.00	30.412 
16:45	51.1	51.1	51.1	57	36.4	1	4	90	0.00	30.413 
16:50	51.1	51.1	51.1	57	36.4	2	5	135	0.00	30.413 
16:55	51.0	51.0	51.0	57	36.3	1	6	135	0.00	30.413 
17:00	51.0	51.0	51.0	58	36.7	0	4	68	0.00	30.411 
17:05	51.0	51.0	51.0	58	36.7	1	3	135	0.00	30.411 
17:10	50.8	50.8	50.8	59	37.0	0	3	112	0.00	30.411 
17:15	50.8	50.8	50.8	58	36.6	0	2	112	0.00	30.415 
17:20	50.8	50.8	50.8	58	36.6	0	3	90	0.00	30.415 
17:25	50.7	50.7	50.7	58	36.5	1	4	112	0.00	30.415 
17:30	50.7	50.7	50.7	58	36.5	1	5	90	0.00	30.416 
17:35	50.8	50.8	50.8	58	36.6	1	3	112	0.00	30.416 
17:40	50.7	50.7	50.7	58	36.5	0	2	90	0.00	30.416 
17:45	50.7	50.7	50.7	58	36.5	0	3	90	0.00	30.426 
17:50	50.7	50.7	50.7	59	36.9	0	2	90	0.00	30.426 
17:55	50.5	50.5	50.5	59	36.7	0	2	90	0.00	30.426 
18:00	50.4	50.4	50.4	58	36.2	1	3	90	0.00	30.423 
18:05	50.4	50.4	50.4	58	36.2	0	3	90	0.00	30.423 
18:10	50.4	50.4	50.4	58	36.2	0	2	90	0.00	30.423 
18:15	50.4	50.4	50.4	57	35.7	0	3	90	0.00	30.418 
18:20	50.4	50.4	50.4	57	35.7	0	2	90	0.00	30.418 
18:25	50.4	50.4	50.4	57	35.7	0	2	90	0.00	30.418 
18:30	50.4	50.4	50.4	56	35.3	1	3	90	0.00	30.421 
18:35	50.4	50.4	50.4	55	34.8	0	2	135	0.00	30.421 
18:40	50.4	50.4	50.4	55	34.8	1	3	135	0.00	30.421 
18:45	50.4	50.4	50.4	56	35.3	1	4	112	0.00	30.415 
18:50	50.4	50.4	50.4	56	35.3	2	4	112	0.00	30.415 
18:55	50.4	50.4	50.4	57	35.7	1	3	90	0.00	30.415 
19:00	50.2	50.2	50.2	57	35.6	1	3	90	0.00	30.417 
19:05	50.2	50.2	50.2	57	35.6	1	4	68	0.00	30.417 
19:10	50.1	50.1	50.1	58	35.9	1	4	90	0.00	30.417 
19:15	50.1	50.1	50.1	59	36.3	1	3	90	0.00	30.425 
19:20	49.9	49.9	49.9	59	36.1	0	1	90	0.00	30.425 
19:25	49.8	49.8	49.8	59	36.1	0	2	90	0.00	30.425 
19:30	49.6	49.6	49.6	59	35.9	0	1	90	0.00	30.430 
19:35	49.6	49.6	49.6	59	35.9	0	1	90	0.00	30.430 
19:40	49.6	49.6	49.6	59	35.9	0	1	90	0.00	30.430 
19:45	49.5	49.5	49.5	60	36.2	0	1	90	0.00	30.433 
19:50	49.5	49.5	49.5	59	35.8	0	1	90	0.00	30.433 
19:55	49.5	49.5	49.5	60	36.2	0	3	135	0.00	30.433 
20:00	49.5	49.5	49.5	59	35.8	0	1	135	0.00	30.434 
20:05	49.5	49.5	49.5	59	35.8	0	4	68	0.00	30.434 
20:10	49.5	49.5	49.5	59	35.8	0	1	68	0.00	30.434 
20:15	49.5	49.5	49.5	59	35.8	0	1	68	0.00	30.437 
20:20	49.5	49.5	49.5	59	35.8	0	1	68	0.00	30.437 
20:25	49.4	49.4	49.4	60	36.1	0	1	68	0.00	30.437 
20:30	49.2	49.2	49.2	59	35.5	0	3	68	0.00	30.434 
20:35	49.2	49.2	49.2	59	35.5	0	1	68	0.00	30.434 
20:40	49.1	49.1	49.1	58	35.0	0	3	68	0.00	30.434 
20:45	49.2	49.2	49.2	59	35.5	0	3	112	0.00	30.442 
20:50	49.1	49.1	49.1	60	35.8	0	1	112	0.00	30.442 
20:55	48.9	48.9	48.9	60	35.6	0	1	112	0.00	30.442 
21:00	48.8	48.8	48.8	60	35.5	0	1	112	0.00	30.446 
21:05	48.8	48.8	48.8	60	35.5	0	1	112	0.00	30.446 
21:10	48.6	48.6	48.6	60	35.3	0	2	112	0.00	30.446 
21:15	48.5	48.5	48.5	61	35.7	0	1	112	0.00	30.443 
21:20	48.5	48.5	48.5	61	35.7	0	4	135	0.00	30.443 
21:25	48.3	48.3	48.3	61	35.5	0	2	135	0.00	30.443 
21:30	48.2	48.2	48.2	62	35.8	0	3	68	0.00	30.444 
21:35	48.0	48.0	48.0	62	35.6	1	3	45	0.00	30.444 
21:40	47.9	47.9	47.9	62	35.5	1	3	45	0.00	30.444 
21:45	47.7	47.7	47.7	62	35.3	0	3	112	0.00	30.444 
21:50	47.6	47.6	47.6	63	35.6	0	2	112	0.00	30.444 
21:55	47.4	47.4	47.4	63	35.4	0	2	112	0.00	30.444 
22:00	47.3	47.3	47.3	64	35.7	0	2	112	0.00	30.444 
22:05	47.1	47.1	47.1	63	35.2	1	3	112	0.00	30.444 
22:10	47.0	47.0	47.0	63	35.1	1	4	112	0.00	30.444 
22:15	47.0	47.0	47.0	63	35.1	1	6	45	0.00	30.441 
22:20	47.0	47.0	47.0	64	35.5	1	3	68	0.00	30.441 
22:25	46.8	46.8	46.8	64	35.3	0	2	68	0.00	30.441 
22:30	46.7	46.7	46.7	64	35.2	0	3	68	0.00	30.440 
22:35	46.5	46.5	46.5	65	35.4	0	3	135	0.00	30.440 
22:40	46.4	46.4	46.4	65	35.3	1	3	22	0.00	30.440 
22:45	46.2	46.2	46.2	65	35.1	1	5	135	0.00	30.444 
22:50	46.1	46.1	46.1	65	35.0	1	3	45	0.00	30.444 
22:55	46.1	46.1	46.1	66	35.4	0	3	0	0.00	30.444 
23:00	46.0	46.0	46.0	66	35.3	0	4	45	0.00	30.443 
23:05	45.7	45.7	45.7	66	35.0	1	3	45	0.00	30.443 
23:10	45.5	45.5	45.5	67	35.2	0	4	90	0.00	30.443 
23:15	45.4	45.4	45.4	67	35.1	0	3	45	0.00	30.443 
23:20	45.1	45.1	45.1	67	34.8	1	3	68	0.00	30.443 
23:25	44.9	44.9	44.9	66	34.2	1	3	68	0.00	30.443 
23:30	44.8	44.8	44.8	65	33.8	1	4	68	0.00	30.442 
23:35	44.8	44.8	44.8	65	33.8	1	4	68	0.00	30.442 
23:40	44.6	44.6	44.6	65	33.6	1	3	90	0.00	30.442 
23:45	44.5	44.5	44.5	64	33.1	1	5	90	0.00	30.444 
23:50	44.3	44.3	44.3	64	32.9	0	2	45	0.00	30.444 
23:55	44.2	44.2	44.2	64	32.8	1	3	45	0.00	30.444 

CoCoRaHS
IN-AL-39
A2 Web Hosting
Creative Commons License
GoDaddy
search engine by freefind advanced

loaded 2018-11-18 11:21:16 • last modified 2010-11-18 10:43:29
Privacy PolicyDisclaimer
• wx.awcolley.com is powered by PmWiki v.2002016 •
• all content (unless otherwise noted) © 2018 A W Colley